createdAt,value
2017-02-08T00:00:32.534Z,-6.21
2017-02-08T00:01:43.195Z,-6.21
2017-02-08T00:02:53.888Z,-6.2
2017-02-08T00:04:04.548Z,-6.23
2017-02-08T00:05:15.211Z,-6.26
2017-02-08T00:06:25.878Z,-6.21
2017-02-08T00:07:36.545Z,-6.3
2017-02-08T00:08:47.228Z,-6.28
2017-02-08T00:09:57.890Z,-6.3
2017-02-08T00:11:08.574Z,-6.23
2017-02-08T00:12:19.241Z,-6.3
2017-02-08T00:13:29.908Z,-6.33
2017-02-08T00:14:40.571Z,-6.44
2017-02-08T00:15:51.231Z,-6.49
2017-02-08T00:17:01.892Z,-6.51
2017-02-08T00:18:12.568Z,-6.52
2017-02-08T00:19:22.869Z,-6.41
2017-02-08T00:20:33.532Z,-6.48
2017-02-08T00:21:44.192Z,-6.64
2017-02-08T00:22:54.849Z,-6.56
2017-02-08T00:24:05.515Z,-6.67
2017-02-08T00:25:15.779Z,-6.66
2017-02-08T00:26:26.441Z,-6.58
2017-02-08T00:27:37.101Z,-6.58
2017-02-08T00:28:47.361Z,-6.63
2017-02-08T00:29:58.024Z,-6.63
2017-02-08T00:31:08.718Z,-6.64
2017-02-08T00:32:19.378Z,-6.56
2017-02-08T00:33:29.643Z,-6.56
2017-02-08T00:34:40.306Z,-6.52
2017-02-08T00:35:50.973Z,-6.48
2017-02-08T00:37:01.632Z,-6.54
2017-02-08T00:38:11.897Z,-6.49
2017-02-08T00:39:22.557Z,-6.51
2017-02-08T00:40:33.225Z,-6.39
2017-02-08T00:41:43.889Z,-6.33
2017-02-08T00:42:54.549Z,-6.38
2017-02-08T00:44:05.210Z,-6.36
2017-02-08T00:45:15.871Z,-6.33
2017-02-08T00:46:26.133Z,-6.21
2017-02-08T00:47:36.796Z,-6.36
2017-02-08T00:48:47.462Z,-6.34
2017-02-08T00:49:58.128Z,-6.36
2017-02-08T00:51:08.787Z,-6.38
2017-02-08T00:52:19.447Z,-6.38
2017-02-08T00:53:29.316Z,-6.31
2017-02-08T00:54:39.976Z,-6.34
2017-02-08T00:55:50.633Z,-6.33
2017-02-08T00:57:01.297Z,-6.34
2017-02-08T00:58:11.563Z,-6.33
2017-02-08T00:59:22.231Z,-6.38
2017-02-08T01:00:32.895Z,-6.33
2017-02-08T01:01:43.558Z,-6.39
2017-02-08T01:02:54.220Z,-6.49
2017-02-08T01:04:04.889Z,-6.49
2017-02-08T01:05:15.157Z,-6.54
2017-02-08T01:06:25.821Z,-6.64
2017-02-08T01:07:36.489Z,-6.64
2017-02-08T01:08:47.151Z,-6.64
2017-02-08T01:09:57.816Z,-6.73
2017-02-08T01:11:08.478Z,-6.73
2017-02-08T01:12:19.143Z,-6.66
2017-02-08T01:13:29.800Z,-6.67
2017-02-08T01:14:40.465Z,-6.67
2017-02-08T01:15:51.126Z,-6.73
2017-02-08T01:17:01.786Z,-6.63
2017-02-08T01:18:12.450Z,-6.58
2017-02-08T01:19:23.108Z,-6.58
2017-02-08T01:20:33.773Z,-6.51
2017-02-08T01:21:44.431Z,-6.58
2017-02-08T01:22:54.694Z,-6.54
2017-02-08T01:24:05.357Z,-6.64
2017-02-08T01:25:15.619Z,-6.64
2017-02-08T01:26:25.890Z,-6.61
2017-02-08T01:27:36.553Z,-6.71
2017-02-08T01:28:47.214Z,-6.68
2017-02-08T01:29:57.474Z,-6.73
2017-02-08T01:31:08.144Z,-6.7
2017-02-08T01:32:18.808Z,-6.73
2017-02-08T01:33:28.671Z,-6.79
2017-02-08T01:34:39.330Z,-6.75
2017-02-08T01:35:49.601Z,-6.61
2017-02-08T01:37:00.262Z,-6.61
2017-02-08T01:38:10.922Z,-6.66
2017-02-08T01:39:21.181Z,-6.63
2017-02-08T01:40:31.845Z,-6.66
2017-02-08T01:41:42.507Z,-6.63
2017-02-08T01:42:53.171Z,-6.61
2017-02-08T01:44:03.835Z,-6.67
2017-02-08T01:45:13.705Z,-6.7
2017-02-08T01:46:23.970Z,-6.71
2017-02-08T01:47:34.629Z,-6.73
2017-02-08T01:48:45.290Z,-6.7
2017-02-08T01:49:55.944Z,-6.66
2017-02-08T01:51:06.604Z,-6.58
2017-02-08T01:52:17.265Z,-6.51
2017-02-08T01:53:27.535Z,-6.56
2017-02-08T01:54:38.200Z,-6.48
2017-02-08T01:55:48.862Z,-6.46
2017-02-08T01:56:59.519Z,-6.52
2017-02-08T01:58:09.785Z,-6.44
2017-02-08T01:59:20.479Z,-6.54
2017-02-08T02:00:31.145Z,-6.39
2017-02-08T02:01:41.805Z,-6.38
2017-02-08T02:02:52.473Z,-6.38
2017-02-08T02:04:03.136Z,-6.44
2017-02-08T02:05:13.397Z,-6.54
2017-02-08T02:06:22.865Z,-6.42
2017-02-08T02:07:33.136Z,-6.49
2017-02-08T02:08:43.793Z,-6.48
2017-02-08T02:09:54.444Z,-6.52
2017-02-08T02:11:05.106Z,-6.54
2017-02-08T02:12:15.366Z,-6.6
2017-02-08T02:13:26.051Z,-6.54
2017-02-08T02:14:36.319Z,-6.45
2017-02-08T02:15:46.983Z,-6.51
2017-02-08T02:16:57.640Z,-6.46
2017-02-08T02:18:08.300Z,-6.48
2017-02-08T02:19:18.959Z,-6.49
2017-02-08T02:20:29.223Z,-6.61
2017-02-08T02:21:39.889Z,-6.58
2017-02-08T02:22:50.553Z,-6.58
2017-02-08T02:24:01.219Z,-6.51
2017-02-08T02:25:11.483Z,-6.46
2017-02-08T02:26:22.141Z,-6.42
2017-02-08T02:27:32.407Z,-6.48
2017-02-08T02:28:43.068Z,-6.52
2017-02-08T02:29:53.730Z,-6.46
2017-02-08T02:31:04.399Z,-6.61
2017-02-08T02:32:15.070Z,-6.58
2017-02-08T02:33:25.341Z,-6.51
2017-02-08T02:34:36.007Z,-6.52
2017-02-08T02:35:46.669Z,-6.56
2017-02-08T02:36:57.330Z,-6.49
2017-02-08T02:38:07.992Z,-6.51
2017-02-08T02:39:18.658Z,-6.49
2017-02-08T02:40:29.280Z,-6.52
2017-02-08T02:41:39.942Z,-6.49
2017-02-08T02:42:50.205Z,-6.51
2017-02-08T02:44:00.873Z,-6.42
2017-02-08T02:45:11.534Z,-6.49
2017-02-08T02:46:22.201Z,-6.52
2017-02-08T02:47:32.471Z,-6.56
2017-02-08T02:48:43.135Z,-6.39
2017-02-08T02:49:53.795Z,-6.51
2017-02-08T02:51:04.466Z,-6.51
2017-02-08T02:52:15.131Z,-6.52
2017-02-08T02:53:25.793Z,-6.54
2017-02-08T02:54:36.457Z,-6.52
2017-02-08T02:55:47.121Z,-6.58
2017-02-08T02:56:57.780Z,-6.56
2017-02-08T02:58:08.444Z,-6.54
2017-02-08T02:59:19.102Z,-6.54
2017-02-08T03:00:29.770Z,-6.46
2017-02-08T03:01:40.441Z,-6.58
2017-02-08T03:02:51.144Z,-6.54
2017-02-08T03:04:01.813Z,-6.49
2017-02-08T03:05:12.080Z,-6.49
2017-02-08T03:06:22.743Z,-6.51
2017-02-08T03:07:33.416Z,-6.51
2017-02-08T03:08:44.088Z,-6.56
2017-02-08T03:09:54.798Z,-6.48
2017-02-08T03:11:05.063Z,-6.45
2017-02-08T03:12:15.755Z,-6.46
2017-02-08T03:13:26.465Z,-6.56
2017-02-08T03:14:37.126Z,-6.52
2017-02-08T03:15:47.793Z,-6.56
2017-02-08T03:16:58.452Z,-6.56
2017-02-08T03:18:08.720Z,-6.63
2017-02-08T03:19:19.381Z,-6.49
2017-02-08T03:20:30.047Z,-6.56
2017-02-08T03:21:40.808Z,-6.64
2017-02-08T03:22:51.463Z,-6.52
2017-02-08T03:24:02.131Z,-6.49
2017-02-08T03:25:12.005Z,-6.54
2017-02-08T03:26:22.667Z,-6.49
2017-02-08T03:27:32.930Z,-6.56
2017-02-08T03:28:43.593Z,-6.48
2017-02-08T03:29:54.255Z,-6.58
2017-02-08T03:31:04.918Z,-6.61
2017-02-08T03:32:15.579Z,-6.52
2017-02-08T03:33:25.848Z,-6.54
2017-02-08T03:34:36.512Z,-6.58
2017-02-08T03:35:47.174Z,-6.56
2017-02-08T03:36:57.842Z,-6.56
2017-02-08T03:38:08.503Z,-6.51
2017-02-08T03:39:19.162Z,-6.46
2017-02-08T03:40:29.429Z,-6.49
2017-02-08T03:41:40.090Z,-6.6
2017-02-08T03:42:50.760Z,-6.56
2017-02-08T03:44:01.423Z,-6.52
2017-02-08T03:45:12.104Z,-6.51
2017-02-08T03:46:22.768Z,-6.51
2017-02-08T03:47:32.634Z,-6.54
2017-02-08T03:48:43.299Z,-6.58
2017-02-08T03:49:53.963Z,-6.54
2017-02-08T03:51:04.629Z,-6.52
2017-02-08T03:52:15.299Z,-6.63
2017-02-08T03:53:25.963Z,-6.51
2017-02-08T03:54:36.626Z,-6.51
2017-02-08T03:55:46.890Z,-6.51
2017-02-08T03:56:57.548Z,-6.52
2017-02-08T03:58:08.215Z,-6.51
2017-02-08T03:59:18.482Z,-6.58
2017-02-08T04:00:29.138Z,-6.56
2017-02-08T04:01:39.799Z,-6.52
2017-02-08T04:02:50.468Z,-6.54
2017-02-08T04:04:01.134Z,-6.58
2017-02-08T04:05:11.797Z,-6.6
2017-02-08T04:06:22.460Z,-6.56
2017-02-08T04:07:32.759Z,-6.6
2017-02-08T04:08:43.415Z,-6.56
2017-02-08T04:09:53.676Z,-6.54
2017-02-08T04:11:04.335Z,-6.46
2017-02-08T04:12:14.996Z,-6.52
2017-02-08T04:13:25.661Z,-6.49
2017-02-08T04:14:36.327Z,-6.51
2017-02-08T04:15:46.590Z,-6.56
2017-02-08T04:16:57.249Z,-6.58
2017-02-08T04:18:07.515Z,-6.56
2017-02-08T04:19:17.805Z,-6.46
2017-02-08T04:20:28.461Z,-6.54
2017-02-08T04:21:39.117Z,-6.58
2017-02-08T04:22:49.778Z,-6.58
2017-02-08T04:24:00.438Z,-6.61
2017-02-08T04:25:10.303Z,-6.63
2017-02-08T04:26:20.970Z,-6.6
2017-02-08T04:27:31.630Z,-6.67
2017-02-08T04:28:42.287Z,-6.67
2017-02-08T04:29:52.956Z,-6.66
2017-02-08T04:31:03.620Z,-6.66
2017-02-08T04:32:13.888Z,-6.64
2017-02-08T04:33:24.549Z,-6.61
2017-02-08T04:34:35.252Z,-6.6
2017-02-08T04:35:45.915Z,-6.67
2017-02-08T04:36:56.575Z,-6.71
2017-02-08T04:38:06.852Z,-6.64
2017-02-08T04:39:17.512Z,-6.73
2017-02-08T04:40:28.168Z,-6.7
2017-02-08T04:41:38.834Z,-6.64
2017-02-08T04:42:49.496Z,-6.66
2017-02-08T04:44:00.175Z,-6.61
2017-02-08T04:45:10.442Z,-6.7
2017-02-08T04:46:20.313Z,-6.67
2017-02-08T04:47:30.967Z,-6.71
2017-02-08T04:48:41.625Z,-6.7
2017-02-08T04:49:51.894Z,-6.67
2017-02-08T04:51:02.553Z,-6.67
2017-02-08T04:52:13.221Z,-6.66
2017-02-08T04:53:23.885Z,-6.67
2017-02-08T04:54:34.545Z,-6.61
2017-02-08T04:55:45.216Z,-6.67
2017-02-08T04:56:55.875Z,-6.6
2017-02-08T04:58:06.539Z,-6.68
2017-02-08T04:59:17.202Z,-6.78
2017-02-08T05:00:27.865Z,-6.67
2017-02-08T05:01:38.131Z,-6.76
2017-02-08T05:02:48.798Z,-6.7
2017-02-08T05:03:59.461Z,-6.78
2017-02-08T05:05:10.123Z,-6.75
2017-02-08T05:06:20.388Z,-6.78
2017-02-08T05:07:31.047Z,-6.68
2017-02-08T05:08:40.914Z,-6.7
2017-02-08T05:09:51.608Z,-6.73
2017-02-08T05:11:02.268Z,-6.73
2017-02-08T05:12:12.935Z,-6.61
2017-02-08T05:13:23.207Z,-6.7
2017-02-08T05:14:33.879Z,-6.67
2017-02-08T05:15:44.541Z,-6.68
2017-02-08T05:16:54.409Z,-6.7
2017-02-08T05:18:05.077Z,-6.6
2017-02-08T05:19:15.337Z,-6.56
2017-02-08T05:20:26.012Z,-6.66
2017-02-08T05:21:36.673Z,-6.52
2017-02-08T05:22:47.331Z,-6.58
2017-02-08T05:23:57.996Z,-6.64
2017-02-08T05:25:08.652Z,-6.6
2017-02-08T05:26:19.312Z,-6.6
2017-02-08T05:27:29.973Z,-6.6
2017-02-08T05:28:40.642Z,-6.7
2017-02-08T05:29:51.307Z,-6.64
2017-02-08T05:31:01.969Z,-6.58
2017-02-08T05:32:12.236Z,-6.64
2017-02-08T05:33:22.899Z,-6.71
2017-02-08T05:34:33.557Z,-6.56
2017-02-08T05:35:44.216Z,-6.6
2017-02-08T05:36:54.480Z,-6.61
2017-02-08T05:38:05.147Z,-6.66
2017-02-08T05:39:15.413Z,-6.61
2017-02-08T05:40:26.079Z,-6.61
2017-02-08T05:41:36.739Z,-6.61
2017-02-08T05:42:47.402Z,-6.58
2017-02-08T05:43:58.066Z,-6.67
2017-02-08T05:45:08.726Z,-6.61
2017-02-08T05:46:19.385Z,-6.64
2017-02-08T05:47:30.045Z,-6.6
2017-02-08T05:48:40.712Z,-6.64
2017-02-08T05:49:51.374Z,-6.68
2017-02-08T05:51:02.039Z,-6.63
2017-02-08T05:52:12.304Z,-6.58
2017-02-08T05:53:22.960Z,-6.54
2017-02-08T05:54:33.637Z,-6.66
2017-02-08T05:55:44.298Z,-6.66
2017-02-08T05:56:54.959Z,-6.67
2017-02-08T05:58:05.622Z,-6.58
2017-02-08T05:59:15.490Z,-6.54
2017-02-08T06:00:25.804Z,-6.58
2017-02-08T06:01:36.460Z,-6.64
2017-02-08T06:02:47.114Z,-6.64
2017-02-08T06:03:57.794Z,-6.67
2017-02-08T06:05:08.061Z,-6.6
2017-02-08T06:06:18.718Z,-6.49
2017-02-08T06:07:29.383Z,-6.49
2017-02-08T06:08:39.647Z,-6.54
2017-02-08T06:09:50.310Z,-6.52
2017-02-08T06:11:00.611Z,-6.58
2017-02-08T06:12:11.273Z,-6.54
2017-02-08T06:13:21.539Z,-6.66
2017-02-08T06:14:32.208Z,-6.58
2017-02-08T06:15:42.873Z,-6.54
2017-02-08T06:16:53.538Z,-6.51
2017-02-08T06:18:04.197Z,-6.51
2017-02-08T06:19:14.864Z,-6.52
2017-02-08T06:20:25.529Z,-6.6
2017-02-08T06:21:36.249Z,-6.56
2017-02-08T06:22:46.913Z,-6.58
2017-02-08T06:23:57.575Z,-6.49
2017-02-08T06:25:08.234Z,-6.49
2017-02-08T06:26:18.895Z,-6.58
2017-02-08T06:27:29.561Z,-6.54
2017-02-08T06:28:40.224Z,-6.52
2017-02-08T06:29:50.887Z,-6.45
2017-02-08T06:31:01.553Z,-6.51
2017-02-08T06:32:11.822Z,-6.56
2017-02-08T06:33:22.488Z,-6.52
2017-02-08T06:34:33.146Z,-6.61
2017-02-08T06:35:43.800Z,-6.6
2017-02-08T06:36:54.467Z,-6.63
2017-02-08T06:38:05.141Z,-6.63
2017-02-08T06:39:15.803Z,-6.63
2017-02-08T06:40:26.462Z,-6.68
2017-02-08T06:41:37.122Z,-6.7
2017-02-08T06:42:47.786Z,-6.63
2017-02-08T06:43:58.456Z,-6.76
2017-02-08T06:45:09.118Z,-6.76
2017-02-08T06:46:19.384Z,-6.68
2017-02-08T06:47:29.656Z,-6.73
2017-02-08T06:48:39.949Z,-6.73
2017-02-08T06:49:50.610Z,-6.68
2017-02-08T06:51:00.879Z,-6.76
2017-02-08T06:52:11.145Z,-6.81
2017-02-08T06:53:21.409Z,-6.75
2017-02-08T06:54:31.668Z,-6.79
2017-02-08T06:55:42.329Z,-6.79
2017-02-08T06:56:52.603Z,-6.88
2017-02-08T06:58:03.266Z,-6.79
2017-02-08T06:59:13.931Z,-6.79
2017-02-08T07:00:24.599Z,-6.82
2017-02-08T07:01:35.269Z,-6.76
2017-02-08T07:02:45.931Z,-6.79
2017-02-08T07:03:56.596Z,-6.81
2017-02-08T07:05:07.269Z,-6.82
2017-02-08T07:06:17.929Z,-6.79
2017-02-08T07:07:28.594Z,-6.76
2017-02-08T07:08:39.256Z,-6.84
2017-02-08T07:09:49.524Z,-6.78
2017-02-08T07:11:00.186Z,-6.78
2017-02-08T07:12:10.844Z,-6.79
2017-02-08T07:13:20.722Z,-6.79
2017-02-08T07:14:31.383Z,-6.79
2017-02-08T07:15:42.047Z,-6.86
2017-02-08T07:16:52.739Z,-6.78
2017-02-08T07:18:03.398Z,-6.79
2017-02-08T07:19:14.062Z,-6.76
2017-02-08T07:20:24.336Z,-6.79
2017-02-08T07:21:34.997Z,-6.84
2017-02-08T07:22:45.663Z,-6.82
2017-02-08T07:23:56.332Z,-6.79
2017-02-08T07:25:06.999Z,-6.76
2017-02-08T07:26:17.660Z,-6.86
2017-02-08T07:27:28.364Z,-6.81
2017-02-08T07:28:38.935Z,-6.78
2017-02-08T07:29:49.200Z,-6.78
2017-02-08T07:30:59.861Z,-6.84
2017-02-08T07:32:10.166Z,-6.79
2017-02-08T07:33:20.435Z,-6.79
2017-02-08T07:34:31.102Z,-6.78
2017-02-08T07:35:41.366Z,-6.78
2017-02-08T07:36:52.026Z,-6.82
2017-02-08T07:38:02.699Z,-6.85
2017-02-08T07:39:14.390Z,-6.81
2017-02-08T07:40:25.150Z,-6.95
2017-02-08T07:41:35.808Z,-6.82
2017-02-08T07:42:46.472Z,-6.85
2017-02-08T07:43:57.131Z,-6.75
2017-02-08T07:45:07.791Z,-6.86
2017-02-08T07:46:17.662Z,-6.75
2017-02-08T07:47:28.355Z,-6.73
2017-02-08T07:48:39.022Z,-6.68
2017-02-08T07:49:49.684Z,-6.66
2017-02-08T07:51:00.345Z,-6.63
2017-02-08T07:52:10.214Z,-6.66
2017-02-08T07:53:20.881Z,-6.7
2017-02-08T07:54:31.540Z,-6.6
2017-02-08T07:55:42.201Z,-6.61
2017-02-08T07:56:52.473Z,-6.54
2017-02-08T07:58:03.129Z,-6.67
2017-02-08T07:59:13.397Z,-6.61
2017-02-08T08:00:23.267Z,-6.48
2017-02-08T08:01:33.928Z,-6.58
2017-02-08T08:02:44.585Z,-6.6
2017-02-08T08:03:55.255Z,-6.56
2017-02-08T08:05:05.924Z,-6.56
2017-02-08T08:06:16.590Z,-6.48
2017-02-08T08:07:27.253Z,-6.45
2017-02-08T08:08:38.514Z,-6.38
2017-02-08T08:09:49.175Z,-6.45
2017-02-08T08:10:59.839Z,-6.34
2017-02-08T08:12:09.711Z,-6.41
2017-02-08T08:13:20.374Z,-6.44
2017-02-08T08:14:31.037Z,-6.34
2017-02-08T08:15:41.722Z,-6.36
2017-02-08T08:16:51.986Z,-6.38
2017-02-08T08:18:02.650Z,-6.33
2017-02-08T08:19:13.311Z,-6.3
2017-02-08T08:20:23.974Z,-6.33
2017-02-08T08:21:34.639Z,-6.34
2017-02-08T08:22:44.904Z,-6.39
2017-02-08T08:23:55.591Z,-6.49
2017-02-08T08:25:06.259Z,-6.51
2017-02-08T08:26:16.923Z,-6.49
2017-02-08T08:27:27.584Z,-6.48
2017-02-08T08:28:38.253Z,-6.56
2017-02-08T08:29:48.913Z,-6.42
2017-02-08T08:30:59.186Z,-6.52
2017-02-08T08:32:09.848Z,-6.34
2017-02-08T08:33:20.543Z,-6.38
2017-02-08T08:34:31.203Z,-6.34
2017-02-08T08:35:41.863Z,-6.31
2017-02-08T08:36:52.524Z,-6.21
2017-02-08T08:38:03.186Z,-6.36
2017-02-08T08:39:13.455Z,-6.2
2017-02-08T08:40:23.719Z,-6.24
2017-02-08T08:41:34.375Z,-6.16
2017-02-08T08:42:45.037Z,-6.1
2017-02-08T08:43:55.696Z,-6.1
2017-02-08T08:45:05.963Z,-6.07
2017-02-08T08:46:16.617Z,-6.02
2017-02-08T08:47:26.887Z,-6.06
2017-02-08T08:48:37.550Z,-5.95
2017-02-08T08:49:47.815Z,-5.95
2017-02-08T08:50:58.478Z,-5.95
2017-02-08T08:52:09.155Z,-5.97
2017-02-08T08:53:19.819Z,-6.1
2017-02-08T08:54:30.478Z,-6.02
2017-02-08T08:55:41.143Z,-6.02
2017-02-08T08:56:51.805Z,-5.92
2017-02-08T08:58:02.076Z,-5.89
2017-02-08T08:59:12.738Z,-5.85
2017-02-08T09:00:23.404Z,-5.87
2017-02-08T09:01:34.066Z,-5.87
2017-02-08T09:02:44.731Z,-5.82
2017-02-08T09:03:55.394Z,-5.78
2017-02-08T09:05:06.062Z,-5.88
2017-02-08T09:06:16.728Z,-5.85
2017-02-08T09:07:26.993Z,-5.76
2017-02-08T09:08:37.660Z,-5.68
2017-02-08T09:09:47.927Z,-5.64
2017-02-08T09:10:58.591Z,-5.71
2017-02-08T09:12:09.252Z,-5.71
2017-02-08T09:13:19.915Z,-5.55
2017-02-08T09:14:30.583Z,-5.56
2017-02-08T09:15:41.251Z,-5.5
2017-02-08T09:16:51.916Z,-5.38
2017-02-08T09:18:02.581Z,-5.45
2017-02-08T09:19:13.256Z,-5.48
2017-02-08T09:20:23.130Z,-5.45
2017-02-08T09:21:33.789Z,-5.45
2017-02-08T09:22:44.448Z,-5.45
2017-02-08T09:23:55.107Z,-5.52
2017-02-08T09:25:05.779Z,-5.53
2017-02-08T09:26:16.434Z,-5.43
2017-02-08T09:27:27.100Z,-5.52
2017-02-08T09:28:37.803Z,-5.43
2017-02-08T09:29:48.466Z,-5.37
2017-02-08T09:30:59.131Z,-5.34
2017-02-08T09:32:09.793Z,-5.3
2017-02-08T09:33:20.501Z,-5.32
2017-02-08T09:34:30.770Z,-5.35
2017-02-08T09:35:41.041Z,-5.34
2017-02-08T09:36:51.706Z,-5.43
2017-02-08T09:38:02.372Z,-5.41
2017-02-08T09:39:13.046Z,-5.43
2017-02-08T09:40:22.913Z,-5.46
2017-02-08T09:41:33.568Z,-5.56
2017-02-08T09:42:44.230Z,-5.58
2017-02-08T09:43:54.926Z,-5.53
2017-02-08T09:45:05.597Z,-5.37
2017-02-08T09:46:16.263Z,-5.32
2017-02-08T09:47:26.530Z,-5.19
2017-02-08T09:48:37.200Z,-5.08
2017-02-08T09:49:47.861Z,-5.1
2017-02-08T09:50:58.523Z,-5.02
2017-02-08T09:52:09.188Z,-4.94
2017-02-08T09:53:19.854Z,-4.87
2017-02-08T09:54:30.127Z,-4.87
2017-02-08T09:55:40.790Z,-4.9
2017-02-08T09:56:51.448Z,-5.06
2017-02-08T09:58:02.110Z,-4.9
2017-02-08T09:59:12.382Z,-4.94
2017-02-08T10:00:22.252Z,-4.94
2017-02-08T10:01:32.918Z,-4.91
2017-02-08T10:02:43.181Z,-4.92
2017-02-08T10:03:53.845Z,-4.87
2017-02-08T10:05:04.544Z,-4.88
2017-02-08T10:06:14.813Z,-4.92
2017-02-08T10:07:25.483Z,-4.9
2017-02-08T10:08:36.155Z,-4.84
2017-02-08T10:09:46.819Z,-4.84
2017-02-08T10:10:57.489Z,-4.74
2017-02-08T10:12:08.158Z,-4.97
2017-02-08T10:13:18.823Z,-4.91
2017-02-08T10:14:29.493Z,-4.9
2017-02-08T10:15:40.158Z,-4.92
2017-02-08T10:16:50.425Z,-5.08
2017-02-08T10:18:01.089Z,-4.98
2017-02-08T10:19:11.754Z,-4.9
2017-02-08T10:20:22.021Z,-4.88
2017-02-08T10:21:32.689Z,-4.9
2017-02-08T10:22:43.357Z,-4.88
2017-02-08T10:23:54.039Z,-4.79
2017-02-08T10:25:04.705Z,-4.69
2017-02-08T10:26:15.377Z,-4.7
2017-02-08T10:27:26.069Z,-4.63
2017-02-08T10:28:36.731Z,-4.59
2017-02-08T10:29:46.993Z,-4.55
2017-02-08T10:30:57.688Z,-4.53
2017-02-08T10:32:07.955Z,-4.62
2017-02-08T10:33:18.619Z,-4.61
2017-02-08T10:34:29.286Z,-4.55
2017-02-08T10:35:39.946Z,-4.44
2017-02-08T10:36:50.214Z,-4.58
2017-02-08T10:38:00.879Z,-4.62
2017-02-08T10:39:11.149Z,-4.77
2017-02-08T10:40:21.820Z,-4.77
2017-02-08T10:41:32.092Z,-4.84
2017-02-08T10:42:42.754Z,-5.02
2017-02-08T10:43:53.423Z,-5.05
2017-02-08T10:45:04.121Z,-4.97
2017-02-08T10:46:14.786Z,-5.19
2017-02-08T10:47:25.459Z,-5.06
2017-02-08T10:48:35.724Z,-4.92
2017-02-08T10:49:46.387Z,-4.9
2017-02-08T10:50:57.052Z,-4.73
2017-02-08T10:52:07.720Z,-4.92
2017-02-08T10:53:17.986Z,-4.92
2017-02-08T10:54:28.256Z,-4.98
2017-02-08T10:55:38.915Z,-5.1
2017-02-08T10:56:49.583Z,-5.09
2017-02-08T10:58:00.253Z,-5.28
2017-02-08T10:59:10.951Z,-5.45
2017-02-08T11:00:21.219Z,-5.48
2017-02-08T11:01:31.888Z,-5.48
2017-02-08T11:02:42.155Z,-5.45
2017-02-08T11:03:52.420Z,-5.35
2017-02-08T11:05:03.090Z,-5.19
2017-02-08T11:06:13.757Z,-5
2017-02-08T11:07:24.021Z,-4.87
2017-02-08T11:08:34.289Z,-4.87
2017-02-08T11:09:44.556Z,-5.02
2017-02-08T11:10:54.829Z,-4.97
2017-02-08T11:12:05.501Z,-5.13
2017-02-08T11:13:16.171Z,-5.2
2017-02-08T11:14:26.437Z,-5.34
2017-02-08T11:15:37.122Z,-5.3
2017-02-08T11:16:47.784Z,-5.38
2017-02-08T11:17:58.050Z,-5.27
2017-02-08T11:19:08.712Z,-5.2
2017-02-08T11:20:19.383Z,-5.16
2017-02-08T11:21:30.052Z,-5.16
2017-02-08T11:22:40.712Z,-5.12
2017-02-08T11:23:50.986Z,-5.13
2017-02-08T11:25:01.649Z,-5.2
2017-02-08T11:26:11.947Z,-5.1
2017-02-08T11:27:22.613Z,-5.16
2017-02-08T11:28:32.877Z,-5.12
2017-02-08T11:29:43.539Z,-5.19
2017-02-08T11:30:54.205Z,-4.98
2017-02-08T11:32:04.101Z,-5
2017-02-08T11:33:14.367Z,-5.02
2017-02-08T11:34:24.633Z,-4.88
2017-02-08T11:35:35.301Z,-4.9
2017-02-08T11:36:45.967Z,-4.91
2017-02-08T11:37:56.635Z,-4.81
2017-02-08T11:39:07.297Z,-4.73
2017-02-08T11:40:17.968Z,-4.79
2017-02-08T11:41:28.632Z,-4.97
2017-02-08T11:42:38.501Z,-4.91
2017-02-08T11:43:49.178Z,-4.97
2017-02-08T11:44:59.044Z,-4.91
2017-02-08T11:46:09.706Z,-4.94
2017-02-08T11:47:20.376Z,-4.84
2017-02-08T11:48:31.222Z,-4.84
2017-02-08T11:49:42.157Z,-4.79
2017-02-08T11:50:52.702Z,-4.8
2017-02-08T11:52:03.734Z,-4.73
2017-02-08T11:53:14.757Z,-4.62
2017-02-08T11:54:25.779Z,-4.63
2017-02-08T11:55:36.812Z,-4.59
2017-02-08T11:56:47.629Z,-4.45
2017-02-08T11:57:58.294Z,-4.41
2017-02-08T11:59:08.958Z,-4.3
2017-02-08T12:00:19.622Z,-4.4
2017-02-08T12:01:30.293Z,-4.4
2017-02-08T12:02:40.956Z,-4.38
2017-02-08T12:03:51.623Z,-4.47
2017-02-08T12:05:01.898Z,-4.52
2017-02-08T12:06:12.561Z,-4.51
2017-02-08T12:07:23.226Z,-4.51
2017-02-08T12:08:33.895Z,-4.44
2017-02-08T12:09:44.561Z,-4.56
2017-02-08T12:10:55.223Z,-4.83
2017-02-08T12:12:05.891Z,-4.74
2017-02-08T12:13:16.571Z,-4.73
2017-02-08T12:14:27.237Z,-4.79
2017-02-08T12:15:37.905Z,-4.77
2017-02-08T12:16:48.568Z,-4.77
2017-02-08T12:17:59.234Z,-4.8
2017-02-08T12:19:09.907Z,-4.79
2017-02-08T12:20:20.574Z,-4.88
2017-02-08T12:21:31.237Z,-4.88
2017-02-08T12:22:41.899Z,-4.67
2017-02-08T12:23:52.197Z,-4.63
2017-02-08T12:25:02.465Z,-4.77
2017-02-08T12:26:12.733Z,-4.91
2017-02-08T12:27:23.390Z,-4.91
2017-02-08T12:28:34.051Z,-5
2017-02-08T12:29:44.324Z,-5.12
2017-02-08T12:30:54.987Z,-5.12
2017-02-08T12:32:05.654Z,-5.19
2017-02-08T12:33:16.320Z,-5.21
2017-02-08T12:34:26.586Z,-5.25
2017-02-08T12:35:37.247Z,-5.28
2017-02-08T12:36:47.928Z,-5.23
2017-02-08T12:37:58.591Z,-5.08
2017-02-08T12:39:09.303Z,-4.94
2017-02-08T12:40:19.969Z,-4.88
2017-02-08T12:41:30.634Z,-4.83
2017-02-08T12:42:41.300Z,-4.73
2017-02-08T12:43:51.960Z,-4.58
2017-02-08T12:45:02.237Z,-4.44
2017-02-08T12:46:12.903Z,-4.41
2017-02-08T12:47:23.567Z,-4.4
2017-02-08T12:48:34.237Z,-4.31
2017-02-08T12:49:44.514Z,-4.26
2017-02-08T12:50:55.177Z,-4.24
2017-02-08T12:52:05.844Z,-4.14
2017-02-08T12:53:16.121Z,-4.09
2017-02-08T12:54:26.787Z,-4.06
2017-02-08T12:55:37.457Z,-3.88
2017-02-08T12:56:48.122Z,-3.87
2017-02-08T12:57:58.389Z,-3.84
2017-02-08T12:59:09.050Z,-3.68
2017-02-08T13:00:19.732Z,-3.58
2017-02-08T13:01:30.398Z,-3.47
2017-02-08T13:02:41.065Z,-3.43
2017-02-08T13:03:51.332Z,-3.25
2017-02-08T13:05:02.003Z,-3.22
2017-02-08T13:06:12.666Z,-3.07
2017-02-08T13:07:23.333Z,-3.08
2017-02-08T13:08:33.601Z,-3.09
2017-02-08T13:09:44.266Z,-3.08
2017-02-08T13:10:54.933Z,-3.09
2017-02-08T13:12:05.200Z,-3.09
2017-02-08T13:13:15.880Z,-3.15
2017-02-08T13:14:26.145Z,-3.11
2017-02-08T13:15:36.810Z,-3.22
2017-02-08T13:16:47.479Z,-3.27
2017-02-08T13:17:58.149Z,-3.23
2017-02-08T13:19:08.423Z,-3.26
2017-02-08T13:20:18.696Z,-3.26
2017-02-08T13:21:29.363Z,-3.37
2017-02-08T13:22:40.026Z,-3.38
2017-02-08T13:23:50.688Z,-3.37
2017-02-08T13:25:01.361Z,-3.4
2017-02-08T13:26:12.032Z,-3.43
2017-02-08T13:27:22.795Z,-3.47
2017-02-08T13:28:33.460Z,-3.48
2017-02-08T13:29:44.121Z,-3.61
2017-02-08T13:30:54.786Z,-3.51
2017-02-08T13:32:05.457Z,-3.58
2017-02-08T13:33:15.328Z,-3.59
2017-02-08T13:34:25.992Z,-3.64
2017-02-08T13:35:36.262Z,-3.65
2017-02-08T13:36:46.925Z,-3.68
2017-02-08T13:37:57.587Z,-3.69
2017-02-08T13:39:08.257Z,-3.68
2017-02-08T13:40:18.572Z,-3.75
2017-02-08T13:41:29.238Z,-3.85
2017-02-08T13:42:39.907Z,-3.75
2017-02-08T13:43:50.581Z,-3.77
2017-02-08T13:45:01.246Z,-3.87
2017-02-08T13:46:11.910Z,-3.78
2017-02-08T13:47:22.577Z,-3.85
2017-02-08T13:48:33.242Z,-3.94
2017-02-08T13:49:43.912Z,-3.88
2017-02-08T13:50:54.585Z,-3.94
2017-02-08T13:52:05.246Z,-4.01
2017-02-08T13:53:15.121Z,-4.04
2017-02-08T13:54:25.786Z,-4.05
2017-02-08T13:55:36.451Z,-4.02
2017-02-08T13:56:47.129Z,-4.05
2017-02-08T13:57:57.796Z,-4.02
2017-02-08T13:59:08.463Z,-4.05
2017-02-08T14:00:18.728Z,-4.02
2017-02-08T14:01:29.391Z,-4.06
2017-02-08T14:02:40.062Z,-4.04
2017-02-08T14:03:50.764Z,-4.06
2017-02-08T14:05:00.633Z,-4.06
2017-02-08T14:06:11.301Z,-4.19
2017-02-08T14:07:21.968Z,-4.23
2017-02-08T14:08:32.637Z,-4.2
2017-02-08T14:09:43.303Z,-4.2
2017-02-08T14:10:53.971Z,-4.22
2017-02-08T14:12:04.643Z,-4.24
2017-02-08T14:13:15.312Z,-4.33
2017-02-08T14:14:25.585Z,-4.33
2017-02-08T14:15:36.247Z,-4.3
2017-02-08T14:16:46.920Z,-4.34
2017-02-08T14:17:57.582Z,-4.34
2017-02-08T14:19:08.246Z,-4.35
2017-02-08T14:20:19.760Z,-4.41
2017-02-08T14:21:30.429Z,-4.41
2017-02-08T14:22:41.103Z,-4.41
2017-02-08T14:23:51.766Z,-4.42
2017-02-08T14:25:02.433Z,-4.58
2017-02-08T14:26:13.203Z,-4.51
2017-02-08T14:27:23.474Z,-4.74
2017-02-08T14:28:33.738Z,-4.83
2017-02-08T14:29:44.405Z,-5.02
2017-02-08T14:30:55.069Z,-5
2017-02-08T14:32:05.736Z,-5.13
2017-02-08T14:37:15.704Z,-5.28
2017-02-08T14:41:49.891Z,-5.39
2017-02-08T14:43:00.556Z,-5.39
2017-02-08T14:44:10.823Z,-5.55
2017-02-08T14:45:21.103Z,-5.48
2017-02-08T14:46:31.362Z,-5.53
2017-02-08T14:47:42.029Z,-5.48
2017-02-08T14:48:52.688Z,-5.43
2017-02-08T14:50:02.955Z,-5.55
2017-02-08T14:51:13.221Z,-5.55
2017-02-08T14:52:23.888Z,-5.48
2017-02-08T14:53:34.555Z,-5.59
2017-02-08T14:54:45.225Z,-5.6
2017-02-08T14:55:55.886Z,-5.63
2017-02-08T14:57:06.546Z,-5.67
2017-02-08T14:58:16.809Z,-5.59
2017-02-08T14:59:27.079Z,-5.66
2017-02-08T15:00:37.746Z,-5.63
2017-02-08T15:01:48.416Z,-5.67
2017-02-08T15:02:59.079Z,-5.74
2017-02-08T15:04:09.740Z,-5.73
2017-02-08T15:05:20.406Z,-5.76
2017-02-08T15:06:30.677Z,-5.84
2017-02-08T15:07:41.349Z,-5.89
2017-02-08T15:08:52.012Z,-6.06
2017-02-08T15:10:02.679Z,-6.1
2017-02-08T15:11:12.547Z,-6.12
2017-02-08T15:12:23.269Z,-6.16
2017-02-08T15:13:33.935Z,-6.26
2017-02-08T15:14:44.596Z,-6.31
2017-02-08T15:15:55.257Z,-6.2
2017-02-08T15:17:05.926Z,-6.26
2017-02-08T15:18:16.593Z,-6.21
2017-02-08T15:19:27.253Z,-6.31